Terminal Aerodrome Forecast
Issued by NWS Jacksonville, FL

Home | Current Version | Previous Version | Text Only | Print | Product List | Glossary On
Versions: 1 2 3 4 5 6 7 8 9 10 11 12 13 14 15
000
FTUS42 KJAX 021721
TAFSSI
TAF
KSSI 021721Z 0218/0318 24010KT P6SM VCTS SCT040CB BKN150 BKN250
      TEMPO 0219/0223 VRB15G30KT 3SM TSRA BR SCT020 BKN040CB OVC090
     FM030100 24006KT P6SM SCT050 BKN250
     FM031400 25008KT P6SM SCT030 BKN250=

USA.gov is the U.S. government's official web portal to all federal, state and local government web resources and services.